createdAt,value
2024-02-10T00:00:22.142Z,8.60
2024-02-10T00:02:51.723Z,8.58
2024-02-10T00:05:20.209Z,8.52
2024-02-10T00:07:48.679Z,8.49
2024-02-10T00:10:15.976Z,8.49
2024-02-10T00:12:43.328Z,8.49
2024-02-10T00:15:12.324Z,8.44
2024-02-10T00:17:40.950Z,8.42
2024-02-10T00:20:12.532Z,8.43
2024-02-10T00:22:39.873Z,8.45
2024-02-10T00:25:07.928Z,8.43
2024-02-10T00:27:35.133Z,8.36
2024-02-10T00:30:02.366Z,8.34
2024-02-10T00:32:29.708Z,8.30
2024-02-10T00:34:57.005Z,8.24
2024-02-10T00:37:25.992Z,8.21
2024-02-10T00:39:53.293Z,8.24
2024-02-10T00:42:20.365Z,8.29
2024-02-10T00:44:47.690Z,8.35
2024-02-10T00:47:14.899Z,8.48
2024-02-10T00:49:42.767Z,8.54
2024-02-10T00:52:10.279Z,8.61
2024-02-10T00:54:39.206Z,8.69
2024-02-10T00:57:06.516Z,8.75
2024-02-10T00:59:33.563Z,8.81
2024-02-10T01:02:00.650Z,8.78
2024-02-10T01:04:27.742Z,8.76
2024-02-10T01:06:54.761Z,8.69
2024-02-10T01:09:21.983Z,8.70
2024-02-10T01:11:53.245Z,8.66
2024-02-10T01:14:22.261Z,8.59
2024-02-10T01:16:49.622Z,8.57
2024-02-10T01:19:17.555Z,8.55
2024-02-10T01:21:45.085Z,8.53
2024-02-10T01:24:12.339Z,8.49
2024-02-10T01:26:39.861Z,8.49
2024-02-10T01:29:10.238Z,8.51
2024-02-10T01:31:37.374Z,8.48
2024-02-10T01:34:04.748Z,8.47
2024-02-10T01:36:34.247Z,8.47
2024-02-10T01:39:01.952Z,8.44
2024-02-10T01:41:31.325Z,8.40
2024-02-10T01:44:00.199Z,8.37
2024-02-10T01:46:31.955Z,8.34
2024-02-10T01:48:59.336Z,8.29
2024-02-10T01:51:27.453Z,8.25
2024-02-10T01:53:56.458Z,8.20
2024-02-10T01:56:23.616Z,8.09
2024-02-10T01:58:50.839Z,8.02
2024-02-10T02:01:18.295Z,7.91
2024-02-10T02:03:48.394Z,7.81
2024-02-10T02:06:17.038Z,7.71
2024-02-10T02:08:45.395Z,7.68
2024-02-10T02:11:12.449Z,7.62
2024-02-10T02:13:39.953Z,7.61
2024-02-10T02:16:07.841Z,7.57
2024-02-10T02:18:35.162Z,7.48
2024-02-10T02:21:04.124Z,7.44
2024-02-10T02:23:32.908Z,7.37
2024-02-10T02:26:00.297Z,7.32
2024-02-10T02:28:27.602Z,7.25
2024-02-10T02:30:57.762Z,7.23
2024-02-10T02:33:25.094Z,7.23
2024-02-10T02:35:52.394Z,7.19
2024-02-10T02:38:19.464Z,7.18
2024-02-10T02:40:48.628Z,7.15
2024-02-10T02:43:16.009Z,7.01
2024-02-10T02:45:44.814Z,6.88
2024-02-10T02:48:12.821Z,6.83
2024-02-10T02:50:40.792Z,6.80
2024-02-10T02:53:08.644Z,6.80
2024-02-10T02:55:35.932Z,6.86
2024-02-10T02:58:07.037Z,6.90
2024-02-10T03:00:36.293Z,6.99
2024-02-10T03:03:03.391Z,7.04
2024-02-10T03:05:30.461Z,7.13
2024-02-10T03:07:57.744Z,7.22
2024-02-10T03:10:24.917Z,7.27
2024-02-10T03:12:53.055Z,7.33
2024-02-10T03:15:22.148Z,7.41
2024-02-10T03:17:49.202Z,7.49
2024-02-10T03:20:17.221Z,7.49
2024-02-10T03:22:44.734Z,7.50
2024-02-10T03:25:12.635Z,7.48
2024-02-10T03:27:39.618Z,7.49
2024-02-10T03:30:07.954Z,7.43
2024-02-10T03:32:37.011Z,7.38
2024-02-10T03:35:05.714Z,7.35
2024-02-10T03:37:33.052Z,7.30
2024-02-10T03:40:00.539Z,7.27
2024-02-10T03:42:27.904Z,7.22
2024-02-10T03:44:55.214Z,7.16
2024-02-10T03:47:22.179Z,7.06
2024-02-10T03:49:50.655Z,7.01
2024-02-10T03:52:18.283Z,6.91
2024-02-10T03:54:49.394Z,6.81
2024-02-10T03:57:16.917Z,6.76
2024-02-10T03:59:44.669Z,6.71
2024-02-10T04:02:11.746Z,6.64
2024-02-10T04:04:39.121Z,6.60
2024-02-10T04:07:07.835Z,6.58
2024-02-10T04:09:35.514Z,6.51
2024-02-10T04:12:06.848Z,6.42
2024-02-10T04:14:34.349Z,6.38
2024-02-10T04:17:03.596Z,6.26
2024-02-10T04:19:30.808Z,6.11
2024-02-10T04:21:58.876Z,5.97
2024-02-10T04:24:28.133Z,5.90
2024-02-10T04:26:55.654Z,5.81
2024-02-10T04:29:23.652Z,5.72
2024-02-10T04:31:50.795Z,5.65
2024-02-10T04:34:18.304Z,5.65
2024-02-10T04:36:45.836Z,5.68
2024-02-10T04:39:13.086Z,5.70
2024-02-10T04:41:42.275Z,5.72
2024-02-10T04:44:10.349Z,5.72
2024-02-10T04:46:37.700Z,5.73
2024-02-10T04:49:04.821Z,5.71
2024-02-10T04:51:31.816Z,5.64
2024-02-10T04:53:59.428Z,5.54
2024-02-10T04:56:26.930Z,5.44
2024-02-10T04:58:56.283Z,5.36
2024-02-10T05:01:32.066Z,5.28
2024-02-10T05:03:59.603Z,5.29
2024-02-10T05:06:30.332Z,5.28
2024-02-10T05:08:57.305Z,5.27
2024-02-10T05:11:26.435Z,5.31
2024-02-10T05:13:53.599Z,5.32
2024-02-10T05:16:22.958Z,5.38
2024-02-10T05:18:50.401Z,5.45
2024-02-10T05:21:21.135Z,5.43
2024-02-10T05:23:48.350Z,5.32
2024-02-10T05:26:15.402Z,5.26
2024-02-10T05:28:44.476Z,5.25
2024-02-10T05:31:12.724Z,5.27
2024-02-10T05:33:42.278Z,5.28
2024-02-10T05:36:09.453Z,5.32
2024-02-10T05:38:36.707Z,5.32
2024-02-10T05:41:04.640Z,5.35
2024-02-10T05:43:33.234Z,5.28
2024-02-10T05:46:00.743Z,5.14
2024-02-10T05:48:28.506Z,5.01
2024-02-10T05:50:58.334Z,4.92
2024-02-10T05:53:25.505Z,4.93
2024-02-10T05:55:53.331Z,4.93
2024-02-10T05:58:20.903Z,4.88
2024-02-10T06:00:47.961Z,4.89
2024-02-10T06:03:18.367Z,4.88
2024-02-10T06:05:47.259Z,4.93
2024-02-10T06:08:18.032Z,4.90
2024-02-10T06:10:45.725Z,4.90
2024-02-10T06:13:13.058Z,4.90
2024-02-10T06:15:41.264Z,4.95
2024-02-10T06:18:09.133Z,4.95
2024-02-10T06:20:36.337Z,4.90
2024-02-10T06:23:03.679Z,4.89
2024-02-10T06:25:32.938Z,4.80
2024-02-10T06:28:01.866Z,4.74
2024-02-10T06:30:33.398Z,4.73
2024-02-10T06:33:01.162Z,4.74
2024-02-10T06:35:29.198Z,4.81
2024-02-10T06:37:57.025Z,4.96
2024-02-10T06:40:25.209Z,5.07
2024-02-10T06:42:55.107Z,5.21
2024-02-10T06:45:22.958Z,5.38
2024-02-10T06:47:51.534Z,5.54
2024-02-10T06:50:20.125Z,5.65
2024-02-10T06:52:50.049Z,5.74
2024-02-10T06:55:18.424Z,5.89
2024-02-10T06:57:46.712Z,6.06
2024-02-10T07:00:17.599Z,6.19
2024-02-10T07:02:45.862Z,6.35
2024-02-10T07:05:18.598Z,6.53
2024-02-10T07:07:47.351Z,6.73
2024-02-10T07:10:15.182Z,6.83
2024-02-10T07:12:44.198Z,6.90
2024-02-10T07:15:12.981Z,7.01
2024-02-10T07:17:42.341Z,7.11
2024-02-10T07:20:10.208Z,7.18
2024-02-10T07:22:39.972Z,7.18
2024-02-10T07:25:08.570Z,7.18
2024-02-10T07:27:35.892Z,7.23
2024-02-10T07:30:03.130Z,7.28
2024-02-10T07:32:31.713Z,7.36
2024-02-10T07:35:00.924Z,7.55
2024-02-10T07:37:30.422Z,7.72
2024-02-10T07:39:57.857Z,7.89
2024-02-10T07:42:24.936Z,8.08
2024-02-10T07:44:52.248Z,8.22
2024-02-10T07:47:19.227Z,8.37
2024-02-10T07:49:48.221Z,8.35
2024-02-10T07:52:17.405Z,8.37
2024-02-10T07:54:44.644Z,8.45
2024-02-10T07:57:11.743Z,8.60
2024-02-10T07:59:42.568Z,8.72
2024-02-10T08:02:10.804Z,8.93
2024-02-10T08:04:41.302Z,9.10
2024-02-10T08:07:08.560Z,9.30
2024-02-10T08:09:37.714Z,9.45
2024-02-10T08:12:05.963Z,9.56
2024-02-10T08:14:34.073Z,9.69
2024-02-10T08:17:02.042Z,9.86
2024-02-10T08:19:29.194Z,10.15
2024-02-10T08:21:57.723Z,10.37
2024-02-10T08:24:25.576Z,10.55
2024-02-10T08:26:54.950Z,10.73
2024-02-10T08:29:22.279Z,10.88
2024-02-10T08:31:51.011Z,10.98
2024-02-10T08:34:18.793Z,11.09
2024-02-10T08:36:46.042Z,11.18
2024-02-10T08:39:13.366Z,11.29
2024-02-10T08:41:40.590Z,11.43
2024-02-10T08:44:09.331Z,11.54
2024-02-10T08:46:36.385Z,11.64
2024-02-10T08:49:03.603Z,11.72
2024-02-10T08:51:31.259Z,11.83
2024-02-10T08:53:59.209Z,11.99
2024-02-10T08:56:27.872Z,12.17
2024-02-10T08:58:55.084Z,12.27
2024-02-10T09:01:24.062Z,12.50
2024-02-10T09:03:51.553Z,13.74
2024-02-10T09:06:20.805Z,15.52
2024-02-10T09:08:49.079Z,16.55
2024-02-10T09:11:17.021Z,17.69
2024-02-10T09:13:44.713Z,18.91
2024-02-10T09:16:12.617Z,20.04
2024-02-10T09:18:43.714Z,21.13
2024-02-10T09:21:10.967Z,21.54
2024-02-10T09:23:38.500Z,22.01
2024-02-10T09:26:06.220Z,22.28
2024-02-10T09:28:33.618Z,22.22
2024-02-10T09:31:00.862Z,21.79
2024-02-10T09:33:27.910Z,21.05
2024-02-10T09:35:57.122Z,20.47
2024-02-10T09:38:24.588Z,19.83
2024-02-10T09:40:51.582Z,19.31
2024-02-10T09:43:19.888Z,19.02
2024-02-10T09:45:48.688Z,19.01
2024-02-10T09:48:18.116Z,19.00
2024-02-10T09:50:45.858Z,18.70
2024-02-10T09:53:15.918Z,18.41
2024-02-10T09:55:43.726Z,18.42
2024-02-10T09:58:11.043Z,19.90
2024-02-10T10:00:38.820Z,21.48
2024-02-10T10:03:06.294Z,22.46
2024-02-10T10:05:39.108Z,23.36
2024-02-10T10:08:07.147Z,24.02
2024-02-10T10:10:37.207Z,24.71
2024-02-10T10:13:08.304Z,25.49
2024-02-10T10:15:38.831Z,25.52
2024-02-10T10:18:13.851Z,24.81
2024-02-10T10:20:41.355Z,24.48
2024-02-10T10:23:08.439Z,23.75
2024-02-10T10:25:37.994Z,22.33
2024-02-10T10:28:06.384Z,20.80
2024-02-10T10:30:36.705Z,19.71
2024-02-10T10:33:06.322Z,19.06
2024-02-10T10:35:35.454Z,18.72
2024-02-10T10:38:06.293Z,18.27
2024-02-10T10:40:35.013Z,18.04
2024-02-10T10:43:05.737Z,17.60
2024-02-10T10:45:36.289Z,17.04
2024-02-10T10:48:04.209Z,16.63
2024-02-10T10:50:32.659Z,16.54
2024-02-10T10:53:04.681Z,16.44
2024-02-10T10:55:35.573Z,16.31
2024-02-10T10:58:06.490Z,16.33
2024-02-10T11:00:36.566Z,16.40
2024-02-10T11:03:05.234Z,16.43
2024-02-10T11:05:35.271Z,16.35
2024-02-10T11:08:03.327Z,16.33
2024-02-10T11:10:39.034Z,16.37
2024-02-10T11:13:08.796Z,16.51
2024-02-10T11:15:36.330Z,16.70
2024-02-10T11:18:04.822Z,16.84
2024-02-10T11:20:33.893Z,17.00
2024-02-10T11:23:11.672Z,16.89
2024-02-10T11:25:41.045Z,16.90
2024-02-10T11:28:19.434Z,16.94
2024-02-10T11:30:48.812Z,16.94
2024-02-10T11:33:21.192Z,17.18
2024-02-10T11:35:48.880Z,17.93
2024-02-10T11:38:16.119Z,18.13
2024-02-10T11:40:44.320Z,17.89
2024-02-10T11:43:13.281Z,17.85
2024-02-10T11:45:44.599Z,18.34
2024-02-10T11:48:11.557Z,18.68
2024-02-10T11:53:21.238Z,18.58
2024-02-10T11:55:51.126Z,18.94
2024-02-10T11:58:20.476Z,19.60
2024-02-10T12:00:48.333Z,20.50
2024-02-10T12:03:15.454Z,20.67
2024-02-10T12:05:44.077Z,21.51
2024-02-10T12:08:11.446Z,22.31
2024-02-10T12:10:39.260Z,22.58
2024-02-10T12:13:06.550Z,21.87
2024-02-10T12:15:38.081Z,21.02
2024-02-10T12:18:05.373Z,20.18
2024-02-10T12:20:33.974Z,19.15
2024-02-10T12:23:01.910Z,18.56
2024-02-10T12:25:29.035Z,18.23
2024-02-10T12:27:56.520Z,18.04
2024-02-10T12:30:24.032Z,17.60
2024-02-10T12:32:54.319Z,17.10
2024-02-10T12:35:21.692Z,16.82
2024-02-10T12:37:50.206Z,16.37
2024-02-10T12:40:17.930Z,15.86
2024-02-10T12:42:46.218Z,15.60
2024-02-10T12:45:14.892Z,15.45
2024-02-10T12:47:42.060Z,15.19
2024-02-10T12:50:12.016Z,15.00
2024-02-10T12:52:40.214Z,14.90
2024-02-10T12:55:08.952Z,14.89
2024-02-10T12:57:35.936Z,14.85
2024-02-10T13:00:03.559Z,14.92
2024-02-10T13:02:30.786Z,14.98
2024-02-10T13:05:00.261Z,15.16
2024-02-10T13:07:29.402Z,15.22
2024-02-10T13:09:57.601Z,15.16
2024-02-10T13:12:24.715Z,15.17
2024-02-10T13:14:51.755Z,15.21
2024-02-10T13:17:19.319Z,15.15
2024-02-10T13:19:48.615Z,14.99
2024-02-10T13:22:15.826Z,14.89
2024-02-10T13:24:46.973Z,14.94
2024-02-10T13:27:14.510Z,14.98
2024-02-10T13:29:42.764Z,15.12
2024-02-10T13:32:10.439Z,15.22
2024-02-10T13:34:50.156Z,15.30
2024-02-10T13:37:26.082Z,15.29
2024-02-10T13:39:55.562Z,15.23
2024-02-10T13:42:22.878Z,15.15
2024-02-10T13:44:50.394Z,15.01
2024-02-10T13:47:19.286Z,14.76
2024-02-10T13:49:47.294Z,14.60
2024-02-10T13:52:14.889Z,14.54
2024-02-10T13:54:43.408Z,14.44
2024-02-10T13:57:12.286Z,14.34
2024-02-10T13:59:39.912Z,14.29
2024-02-10T14:02:10.101Z,14.18
2024-02-10T14:04:37.618Z,14.13
2024-02-10T14:07:05.130Z,14.02
2024-02-10T14:09:32.337Z,13.95
2024-02-10T14:11:59.843Z,13.93
2024-02-10T14:14:32.129Z,13.97
2024-02-10T14:17:01.378Z,13.95
2024-02-10T14:19:30.141Z,13.92
2024-02-10T14:21:59.530Z,13.93
2024-02-10T14:24:27.888Z,13.92
2024-02-10T14:26:55.546Z,13.91
2024-02-10T14:29:22.997Z,13.89
2024-02-10T14:31:52.891Z,13.75
2024-02-10T14:34:20.820Z,13.71
2024-02-10T14:36:47.986Z,13.68
2024-02-10T14:39:17.178Z,13.69
2024-02-10T14:41:45.246Z,13.56
2024-02-10T14:44:12.657Z,13.48
2024-02-10T14:46:42.242Z,13.42
2024-02-10T14:49:13.184Z,13.35
2024-02-10T14:51:40.742Z,13.31
2024-02-10T14:54:08.477Z,13.28
2024-02-10T14:56:35.720Z,13.24
2024-02-10T14:59:03.145Z,13.20
2024-02-10T15:01:31.431Z,13.15
2024-02-10T15:03:59.229Z,13.07
2024-02-10T15:06:28.533Z,13.04
2024-02-10T15:08:57.227Z,13.00
2024-02-10T15:11:24.820Z,12.93
2024-02-10T15:13:54.782Z,12.86
2024-02-10T15:16:24.207Z,12.80
2024-02-10T15:18:53.262Z,12.77
2024-02-10T15:21:21.161Z,12.78
2024-02-10T15:23:50.288Z,12.72
2024-02-10T15:26:17.626Z,12.68
2024-02-10T15:28:44.980Z,12.64
2024-02-10T15:31:12.645Z,12.56
2024-02-10T15:33:40.291Z,12.52
2024-02-10T15:36:08.535Z,12.49
2024-02-10T15:38:36.850Z,12.49
2024-02-10T15:41:06.042Z,12.47
2024-02-10T15:43:35.687Z,12.42
2024-02-10T15:46:04.329Z,12.36
2024-02-10T15:48:31.545Z,12.36
2024-02-10T15:51:00.189Z,12.33
2024-02-10T15:53:27.930Z,12.25
2024-02-10T15:55:55.526Z,12.23
2024-02-10T15:58:24.774Z,12.18
2024-02-10T16:00:52.658Z,12.14
2024-02-10T16:03:20.540Z,12.14
2024-02-10T16:05:48.815Z,12.11
2024-02-10T16:08:17.531Z,12.08
2024-02-10T16:10:46.808Z,12.03
2024-02-10T16:13:15.102Z,12.02
2024-02-10T16:15:45.554Z,12.03
2024-02-10T16:18:13.117Z,11.98
2024-02-10T16:20:41.168Z,11.96
2024-02-10T16:23:09.390Z,11.92
2024-02-10T16:25:40.341Z,11.85
2024-02-10T16:28:08.116Z,11.67
2024-02-10T16:30:35.387Z,11.41
2024-02-10T16:33:04.984Z,11.20
2024-02-10T16:35:32.335Z,11.03
2024-02-10T16:38:00.421Z,10.92
2024-02-10T16:40:28.502Z,10.81
2024-02-10T16:42:59.049Z,10.62
2024-02-10T16:45:26.904Z,10.51
2024-02-10T16:47:56.137Z,10.43
2024-02-10T16:50:26.250Z,10.44
2024-02-10T16:52:57.227Z,10.43
2024-02-10T16:55:24.729Z,10.47
2024-02-10T16:57:56.606Z,10.54
2024-02-10T17:00:24.892Z,10.58
2024-02-10T17:02:52.999Z,10.55
2024-02-10T17:05:20.584Z,10.59
2024-02-10T17:07:50.280Z,10.58
2024-02-10T17:10:17.504Z,10.58
2024-02-10T17:12:46.191Z,10.62
2024-02-10T17:15:13.411Z,10.62
2024-02-10T17:17:40.792Z,10.57
2024-02-10T17:20:10.276Z,10.52
2024-02-10T17:22:37.996Z,10.50
2024-02-10T17:25:08.509Z,10.55
2024-02-10T17:27:36.446Z,10.56
2024-02-10T17:30:04.575Z,10.57
2024-02-10T17:32:32.554Z,10.57
2024-02-10T17:35:00.588Z,10.58
2024-02-10T17:37:27.845Z,10.61
2024-02-10T17:39:55.718Z,10.64
2024-02-10T17:42:26.458Z,10.67
2024-02-10T17:44:54.570Z,10.69
2024-02-10T17:47:21.934Z,10.70
2024-02-10T17:49:49.813Z,10.73
2024-02-10T17:52:17.342Z,10.74
2024-02-10T17:54:44.837Z,10.74
2024-02-10T17:57:12.057Z,10.74
2024-02-10T17:59:42.180Z,10.74
2024-02-10T18:02:14.188Z,10.77
2024-02-10T18:04:44.205Z,10.77
2024-02-10T18:07:11.439Z,10.75
2024-02-10T18:09:42.030Z,10.77
2024-02-10T18:12:11.226Z,10.82
2024-02-10T18:14:38.336Z,10.86
2024-02-10T18:17:07.482Z,10.84
2024-02-10T18:19:34.724Z,10.81
2024-02-10T18:22:02.116Z,10.75
2024-02-10T18:24:29.434Z,10.75
2024-02-10T18:26:56.893Z,10.70
2024-02-10T18:29:24.403Z,10.69
2024-02-10T18:31:54.310Z,10.70
2024-02-10T18:34:23.563Z,10.68
2024-02-10T18:36:50.938Z,10.70
2024-02-10T18:39:18.152Z,10.70
2024-02-10T18:41:48.429Z,10.73
2024-02-10T18:44:16.562Z,10.70
2024-02-10T18:46:43.936Z,10.68
2024-02-10T18:49:11.097Z,10.65
2024-02-10T18:51:40.492Z,10.62
2024-02-10T18:54:07.664Z,10.60
2024-02-10T18:56:36.456Z,10.59
2024-02-10T18:59:03.749Z,10.57
2024-02-10T19:01:31.042Z,10.54
2024-02-10T19:03:59.740Z,10.51
2024-02-10T19:06:28.284Z,10.43
2024-02-10T19:08:57.249Z,10.44
2024-02-10T19:11:24.573Z,10.47
2024-02-10T19:13:51.699Z,10.47
2024-02-10T19:16:18.963Z,10.46
2024-02-10T19:18:46.249Z,10.45
2024-02-10T19:21:14.863Z,10.41
2024-02-10T19:23:43.073Z,10.39
2024-02-10T19:26:12.461Z,10.31
2024-02-10T19:28:40.274Z,10.22
2024-02-10T19:31:09.227Z,10.18
2024-02-10T19:33:36.774Z,10.14
2024-02-10T19:36:04.425Z,10.13
2024-02-10T19:38:31.735Z,10.13
2024-02-10T19:40:59.066Z,10.07
2024-02-10T19:43:28.002Z,10.07
2024-02-10T19:45:55.114Z,10.08
2024-02-10T19:48:23.261Z,10.09
2024-02-10T19:50:51.584Z,10.12
2024-02-10T19:53:18.760Z,10.11
2024-02-10T19:55:46.514Z,10.06
2024-02-10T19:58:13.804Z,10.09
2024-02-10T20:00:43.648Z,10.05
2024-02-10T20:03:11.490Z,9.97
2024-02-10T20:05:38.773Z,9.94
2024-02-10T20:08:07.707Z,9.89
2024-02-10T20:10:35.007Z,9.80
2024-02-10T20:13:02.354Z,9.76
2024-02-10T20:15:29.608Z,9.73
2024-02-10T20:17:58.899Z,9.75
2024-02-10T20:20:26.329Z,9.77
2024-02-10T20:22:53.320Z,9.79
2024-02-10T20:25:21.361Z,9.81
2024-02-10T20:27:48.438Z,9.81
2024-02-10T20:30:16.173Z,9.80
2024-02-10T20:32:45.044Z,9.80
2024-02-10T20:35:14.060Z,9.74
2024-02-10T20:37:41.181Z,9.73
2024-02-10T20:40:09.194Z,9.71
2024-02-10T20:42:36.506Z,9.63
2024-02-10T20:45:03.938Z,9.57
2024-02-10T20:47:31.333Z,9.49
2024-02-10T20:49:59.008Z,9.43
2024-02-10T20:52:28.437Z,9.40
2024-02-10T20:54:56.005Z,9.39
2024-02-10T20:57:23.240Z,9.34
2024-02-10T20:59:50.539Z,9.33
2024-02-10T21:02:18.064Z,9.32
2024-02-10T21:04:45.671Z,9.29
2024-02-10T21:07:12.748Z,9.26
2024-02-10T21:09:42.418Z,9.24
2024-02-10T21:12:10.192Z,9.25
2024-02-10T21:14:38.293Z,9.26
2024-02-10T21:17:05.472Z,9.23
2024-02-10T21:19:33.044Z,9.27
2024-02-10T21:22:00.832Z,9.23
2024-02-10T21:24:28.537Z,9.24
2024-02-10T21:26:59.187Z,9.23
2024-02-10T21:29:27.265Z,9.21
2024-02-10T21:31:54.580Z,9.13
2024-02-10T21:34:22.344Z,9.08
2024-02-10T21:36:49.596Z,9.03
2024-02-10T21:39:16.911Z,9.00
2024-02-10T21:41:44.875Z,8.97
2024-02-10T21:44:14.075Z,8.94
2024-02-10T21:46:41.930Z,8.92
2024-02-10T21:49:09.093Z,8.85
2024-02-10T21:51:36.743Z,8.71
2024-02-10T21:54:04.238Z,8.65
2024-02-10T21:56:31.281Z,8.61
2024-02-10T21:58:58.497Z,8.55
2024-02-10T22:01:27.924Z,8.56
2024-02-10T22:03:55.503Z,8.51
2024-02-10T22:06:22.787Z,8.51
2024-02-10T22:08:50.328Z,8.50
2024-02-10T22:11:20.462Z,8.54
2024-02-10T22:13:47.826Z,8.59
2024-02-10T22:16:15.524Z,8.62
2024-02-10T22:18:44.295Z,8.68
2024-02-10T22:21:11.672Z,8.73
2024-02-10T22:23:38.729Z,8.76
2024-02-10T22:26:06.535Z,8.79
2024-02-10T22:28:33.866Z,8.73
2024-02-10T22:31:02.580Z,8.67
2024-02-10T22:33:29.745Z,8.65
2024-02-10T22:35:59.561Z,8.65
2024-02-10T22:38:26.504Z,8.66
2024-02-10T22:40:54.068Z,8.65
2024-02-10T22:43:21.815Z,8.67
2024-02-10T22:45:49.252Z,8.71
2024-02-10T22:48:16.441Z,8.70
2024-02-10T22:50:44.059Z,8.73
2024-02-10T22:53:13.256Z,8.82
2024-02-10T22:55:40.488Z,8.90
2024-02-10T22:58:08.000Z,8.94
2024-02-10T23:00:36.378Z,9.00
2024-02-10T23:03:04.338Z,9.02
2024-02-10T23:05:31.933Z,9.04
2024-02-10T23:07:59.795Z,9.11
2024-02-10T23:10:28.764Z,9.12
2024-02-10T23:12:56.728Z,9.12
2024-02-10T23:15:24.629Z,9.14
2024-02-10T23:17:52.305Z,9.13
2024-02-10T23:20:19.957Z,9.13
2024-02-10T23:22:47.507Z,9.14
2024-02-10T23:25:15.048Z,9.16
2024-02-10T23:27:43.745Z,9.14
2024-02-10T23:30:11.358Z,9.16
2024-02-10T23:32:41.396Z,9.16
2024-02-10T23:35:09.277Z,9.18
2024-02-10T23:37:36.589Z,9.19
2024-02-10T23:40:04.124Z,9.19
2024-02-10T23:42:31.709Z,9.20
2024-02-10T23:45:00.267Z,9.21
2024-02-10T23:47:27.644Z,9.23
2024-02-10T23:49:54.797Z,9.26
2024-02-10T23:52:22.470Z,9.25
2024-02-10T23:54:49.565Z,9.25
2024-02-10T23:57:16.891Z,9.27
2024-02-10T23:59:44.127Z,9.26
